createdAt,value
2022-08-16T00:01:40.736Z,29.50
2022-08-16T00:04:13.851Z,29.50
2022-08-16T00:06:46.933Z,29.60
2022-08-16T00:09:19.401Z,29.60
2022-08-16T00:11:52.751Z,29.60
2022-08-16T00:14:33.832Z,29.60
2022-08-16T00:17:18.810Z,29.60
2022-08-16T00:19:53.599Z,29.50
2022-08-16T00:22:27.923Z,29.50
2022-08-16T00:25:00.787Z,29.60
2022-08-16T00:27:33.460Z,29.50
2022-08-16T00:30:19.821Z,29.60
2022-08-16T00:33:02.579Z,29.60
2022-08-16T00:35:37.472Z,29.50
2022-08-16T00:38:40.753Z,29.50
2022-08-16T00:41:03.115Z,29.50
2022-08-16T00:43:41.046Z,29.50
2022-08-16T00:46:36.793Z,29.50
2022-08-16T00:49:25.631Z,29.50
2022-08-16T00:51:59.482Z,29.50
2022-08-16T00:54:33.046Z,29.50
2022-08-16T00:57:07.524Z,29.50
2022-08-16T00:59:54.832Z,29.50
2022-08-16T01:02:33.154Z,29.50
2022-08-16T01:05:10.496Z,29.50
2022-08-16T01:07:50.445Z,29.50
2022-08-16T01:10:32.168Z,29.50
2022-08-16T01:13:08.154Z,29.50
2022-08-16T01:15:46.794Z,29.50
2022-08-16T01:18:40.472Z,29.40
2022-08-16T01:21:41.383Z,29.40
2022-08-16T01:24:52.370Z,29.40
2022-08-16T01:27:34.630Z,29.40
2022-08-16T01:30:19.555Z,29.40
2022-08-16T01:33:14.344Z,29.40
2022-08-16T01:36:11.709Z,29.40
2022-08-16T01:38:51.235Z,29.40
2022-08-16T01:41:31.482Z,29.40
2022-08-16T01:44:07.966Z,29.40
2022-08-16T01:46:44.394Z,29.40
2022-08-16T01:49:35.976Z,29.40
2022-08-16T01:52:28.038Z,29.40
2022-08-16T01:55:24.626Z,29.30
2022-08-16T01:58:00.445Z,29.30
2022-08-16T02:00:33.280Z,29.30
2022-08-16T02:03:06.094Z,29.20
2022-08-16T02:05:40.612Z,29.20
2022-08-16T02:08:32.960Z,29.20
2022-08-16T02:11:09.233Z,29.20
2022-08-16T02:13:42.779Z,29.10
2022-08-16T02:16:20.405Z,29.10
2022-08-16T02:18:53.621Z,29.10
2022-08-16T02:21:31.162Z,29.10
2022-08-16T02:24:30.784Z,29.10
2022-08-16T02:26:57.904Z,29.10
2022-08-16T02:29:31.956Z,29.10
2022-08-16T02:32:50.006Z,29.10
2022-08-16T02:34:58.351Z,29.10
2022-08-16T02:37:51.340Z,29.00
2022-08-16T02:40:25.742Z,29.10
2022-08-16T02:42:58.544Z,29.10
2022-08-16T02:45:33.559Z,29.10
2022-08-16T02:48:29.435Z,29.00
2022-08-16T02:51:10.298Z,29.00
2022-08-16T02:53:48.414Z,29.00
2022-08-16T02:56:22.439Z,29.00
2022-08-16T02:58:56.075Z,29.00
2022-08-16T03:01:36.487Z,29.00
2022-08-16T03:04:41.105Z,28.90
2022-08-16T03:07:12.744Z,28.90
2022-08-16T03:09:51.948Z,28.90
2022-08-16T03:12:30.211Z,28.90
2022-08-16T03:15:11.149Z,28.90
2022-08-16T03:17:53.381Z,28.90
2022-08-16T03:20:32.364Z,28.90
2022-08-16T03:23:07.873Z,28.90
2022-08-16T03:25:44.768Z,28.90
2022-08-16T03:28:21.528Z,28.80
2022-08-16T03:30:55.422Z,28.90
2022-08-16T03:33:29.963Z,28.90
2022-08-16T03:36:29.876Z,28.90
2022-08-16T03:39:03.431Z,28.90
2022-08-16T03:41:50.333Z,28.90
2022-08-16T03:44:43.546Z,28.90
2022-08-16T03:47:19.731Z,28.90
2022-08-16T03:49:56.799Z,28.90
2022-08-16T03:52:31.416Z,28.90
2022-08-16T03:55:07.262Z,28.90
2022-08-16T03:57:43.895Z,28.90
2022-08-16T04:00:35.928Z,28.90
2022-08-16T04:03:18.811Z,28.90
2022-08-16T04:05:54.197Z,28.90
2022-08-16T04:08:28.700Z,28.90
2022-08-16T04:11:04.225Z,28.90
2022-08-16T04:14:00.654Z,28.90
2022-08-16T04:16:33.728Z,28.90
2022-08-16T04:19:31.706Z,28.90
2022-08-16T04:22:09.558Z,28.90
2022-08-16T04:24:54.464Z,28.90
2022-08-16T04:27:31.763Z,28.90
2022-08-16T04:30:10.869Z,28.90
2022-08-16T04:32:50.038Z,28.90
2022-08-16T04:35:24.246Z,28.90
2022-08-16T04:37:57.995Z,28.90
2022-08-16T04:40:35.742Z,28.90
2022-08-16T04:43:13.643Z,28.90
2022-08-16T04:46:00.158Z,28.90
2022-08-16T04:48:36.491Z,28.90
2022-08-16T04:51:16.871Z,29.00
2022-08-16T04:53:51.956Z,29.00
2022-08-16T04:56:25.635Z,28.90
2022-08-16T04:58:59.382Z,29.00
2022-08-16T05:01:58.248Z,29.00
2022-08-16T05:04:30.016Z,29.20
2022-08-16T05:07:05.101Z,29.30
2022-08-16T05:10:00.821Z,29.50
2022-08-16T05:12:34.415Z,29.80
2022-08-16T05:15:09.874Z,30.00
2022-08-16T05:17:45.220Z,30.20
2022-08-16T05:20:38.730Z,30.40
2022-08-16T05:23:15.185Z,30.60
2022-08-16T05:25:49.077Z,30.90
2022-08-16T05:28:23.077Z,31.00
2022-08-16T05:31:03.961Z,31.30
2022-08-16T05:33:42.293Z,31.50
2022-08-16T05:36:16.004Z,31.70
2022-08-16T05:38:57.021Z,31.90
2022-08-16T05:41:32.758Z,32.10
2022-08-16T05:44:23.033Z,32.30
2022-08-16T05:47:01.205Z,32.50
2022-08-16T05:49:38.412Z,32.70
2022-08-16T05:52:17.322Z,32.90
2022-08-16T05:55:01.097Z,33.00
2022-08-16T05:57:38.533Z,33.10
2022-08-16T06:00:22.370Z,33.20
2022-08-16T06:02:58.435Z,33.20
2022-08-16T06:06:00.778Z,33.20
2022-08-16T06:08:42.052Z,33.30
2022-08-16T06:11:19.804Z,33.30
2022-08-16T06:14:01.562Z,33.30
2022-08-16T06:16:43.699Z,33.30
2022-08-16T06:19:16.411Z,33.30
2022-08-16T06:22:02.739Z,33.40
2022-08-16T06:24:53.293Z,33.40
2022-08-16T06:27:27.686Z,33.30
2022-08-16T06:30:13.731Z,33.30
2022-08-16T06:32:54.073Z,33.20
2022-08-16T06:35:27.875Z,33.10
2022-08-16T06:38:33.023Z,33.10
2022-08-16T06:41:13.481Z,33.10
2022-08-16T06:43:48.229Z,33.10
2022-08-16T06:46:35.417Z,33.20
2022-08-16T06:49:15.891Z,33.30
2022-08-16T06:51:49.477Z,33.20
2022-08-16T06:54:29.675Z,33.20
2022-08-16T06:57:05.662Z,33.10
2022-08-16T06:59:52.342Z,33.10
2022-08-16T07:02:33.121Z,33.20
2022-08-16T07:05:10.647Z,33.30
2022-08-16T07:07:54.406Z,33.40
2022-08-16T07:10:29.449Z,33.50
2022-08-16T07:13:08.595Z,33.60
2022-08-16T07:15:50.508Z,33.60
2022-08-16T07:18:29.334Z,33.70
2022-08-16T07:21:03.675Z,33.70
2022-08-16T07:23:39.255Z,33.80
2022-08-16T07:26:25.701Z,33.70
2022-08-16T07:29:01.948Z,33.80
2022-08-16T07:31:37.927Z,33.90
2022-08-16T07:34:15.218Z,34.00
2022-08-16T07:36:53.599Z,34.10
2022-08-16T07:39:43.192Z,34.10
2022-08-16T07:42:25.925Z,34.10
2022-08-16T07:45:10.130Z,34.00
2022-08-16T07:47:47.606Z,34.00
2022-08-16T07:50:55.985Z,33.90
2022-08-16T07:53:16.999Z,33.80
2022-08-16T07:55:49.825Z,33.80
2022-08-16T07:58:35.079Z,33.90
2022-08-16T08:01:15.019Z,33.90
2022-08-16T08:03:54.405Z,33.80
2022-08-16T08:06:36.307Z,33.80
2022-08-16T08:09:16.233Z,33.80
2022-08-16T08:12:00.864Z,33.80
2022-08-16T08:14:37.628Z,33.80
2022-08-16T08:17:11.944Z,33.90
2022-08-16T08:19:53.374Z,33.90
2022-08-16T08:22:26.503Z,34.00
2022-08-16T08:25:03.765Z,34.10
2022-08-16T08:27:38.544Z,34.10
2022-08-16T08:30:51.594Z,34.10
2022-08-16T08:33:10.705Z,34.10
2022-08-16T08:35:49.560Z,34.10
2022-08-16T08:38:43.961Z,34.10
2022-08-16T08:41:18.930Z,34.10
2022-08-16T08:43:57.282Z,34.20
2022-08-16T08:46:35.654Z,34.20
2022-08-16T08:49:10.123Z,34.20
2022-08-16T08:51:46.295Z,34.20
2022-08-16T08:54:22.971Z,34.10
2022-08-16T08:57:00.024Z,34.10
2022-08-16T08:59:59.167Z,34.10
2022-08-16T09:02:31.708Z,34.20
2022-08-16T09:05:15.402Z,34.20
2022-08-16T09:08:00.478Z,34.20
2022-08-16T09:10:58.906Z,34.30
2022-08-16T09:13:36.408Z,34.30
2022-08-16T09:16:10.304Z,34.30
2022-08-16T09:18:48.589Z,34.30
2022-08-16T09:21:31.621Z,34.40
2022-08-16T09:24:09.828Z,34.50
2022-08-16T09:26:46.561Z,34.50
2022-08-16T09:29:24.120Z,34.50
2022-08-16T09:32:28.666Z,34.50
2022-08-16T09:35:04.585Z,34.60
2022-08-16T09:37:37.410Z,34.60
2022-08-16T09:40:31.933Z,34.50
2022-08-16T09:43:05.106Z,34.50
2022-08-16T09:45:41.770Z,34.50
2022-08-16T09:48:43.947Z,34.40
2022-08-16T09:51:14.043Z,34.40
2022-08-16T09:53:53.819Z,34.40
2022-08-16T09:56:31.894Z,34.50
2022-08-16T09:59:08.363Z,34.50
2022-08-16T10:01:43.625Z,34.40
2022-08-16T10:04:31.430Z,34.50
2022-08-16T10:07:14.928Z,34.50
2022-08-16T10:09:54.640Z,34.50
2022-08-16T10:12:55.390Z,34.50
2022-08-16T10:15:30.120Z,34.60
2022-08-16T10:19:01.958Z,34.60
2022-08-16T10:21:02.007Z,34.60
2022-08-16T10:23:35.273Z,34.60
2022-08-16T10:27:19.779Z,34.60
2022-08-16T10:29:01.850Z,34.60
2022-08-16T10:31:45.733Z,34.50
2022-08-16T10:34:30.689Z,34.50
2022-08-16T10:37:04.746Z,34.40
2022-08-16T10:39:41.810Z,34.30
2022-08-16T10:42:14.989Z,34.20
2022-08-16T10:44:54.696Z,34.10
2022-08-16T10:47:30.425Z,34.00
2022-08-16T10:50:07.560Z,34.00
2022-08-16T10:52:58.686Z,33.90
2022-08-16T10:55:41.006Z,33.80
2022-08-16T10:58:17.476Z,33.70
2022-08-16T11:00:54.235Z,33.60
2022-08-16T11:03:46.096Z,33.60
2022-08-16T11:06:21.570Z,33.40
2022-08-16T11:09:25.244Z,33.50
2022-08-16T11:12:13.839Z,33.40
2022-08-16T11:17:44.962Z,33.30
2022-08-16T11:20:41.066Z,33.20
2022-08-16T11:23:15.841Z,33.20
2022-08-16T11:26:07.472Z,33.10
2022-08-16T11:31:34.127Z,33.10
2022-08-16T11:34:08.133Z,33.00
2022-08-16T11:36:59.424Z,32.90
2022-08-16T11:39:34.159Z,32.90
2022-08-16T11:42:07.671Z,32.90
2022-08-16T11:44:56.874Z,32.80
2022-08-16T11:47:30.580Z,32.80
2022-08-16T11:50:04.609Z,32.70
2022-08-16T11:52:38.984Z,32.70
2022-08-16T11:55:19.740Z,32.70
2022-08-16T11:57:57.424Z,32.70
2022-08-16T12:00:50.269Z,32.70
2022-08-16T12:03:34.490Z,32.70
2022-08-16T12:06:25.401Z,32.70
2022-08-16T12:09:05.805Z,32.70
2022-08-16T12:11:38.640Z,32.70
2022-08-16T12:14:11.301Z,32.60
2022-08-16T12:16:48.724Z,32.60
2022-08-16T12:19:35.098Z,32.60
2022-08-16T12:22:18.869Z,32.60
2022-08-16T12:24:53.075Z,32.60
2022-08-16T12:27:26.349Z,32.60
2022-08-16T12:29:59.111Z,32.60
2022-08-16T12:32:39.364Z,32.60
2022-08-16T12:35:19.185Z,32.60
2022-08-16T12:37:56.787Z,32.50
2022-08-16T12:40:35.174Z,32.50
2022-08-16T12:43:11.214Z,32.50
2022-08-16T12:45:48.116Z,32.40
2022-08-16T12:48:44.940Z,32.40
2022-08-16T12:51:24.151Z,32.30
2022-08-16T12:53:58.721Z,32.20
2022-08-16T12:56:34.367Z,32.20
2022-08-16T12:59:14.765Z,32.10
2022-08-16T13:01:58.247Z,32.10
2022-08-16T13:04:33.536Z,32.10
2022-08-16T13:07:08.621Z,32.10
2022-08-16T13:09:52.664Z,32.10
2022-08-16T13:12:28.561Z,32.10
2022-08-16T13:15:02.601Z,32.10
2022-08-16T13:17:35.824Z,32.10
2022-08-16T13:20:12.200Z,32.00
2022-08-16T13:22:50.291Z,32.00
2022-08-16T13:25:25.583Z,32.00
2022-08-16T13:28:02.033Z,32.00
2022-08-16T13:30:42.047Z,32.00
2022-08-16T13:33:26.172Z,32.00
2022-08-16T13:36:02.352Z,32.00
2022-08-16T13:38:37.729Z,32.00
2022-08-16T13:41:13.419Z,32.00
2022-08-16T13:43:57.478Z,32.10
2022-08-16T13:46:32.566Z,32.10
2022-08-16T13:49:05.363Z,32.10
2022-08-16T13:51:39.220Z,32.10
2022-08-16T13:54:12.187Z,32.10
2022-08-16T13:56:45.458Z,32.10
2022-08-16T13:59:21.264Z,32.10
2022-08-16T14:01:59.525Z,32.10
2022-08-16T14:04:37.970Z,32.10
2022-08-16T14:07:19.857Z,32.10
2022-08-16T14:09:57.290Z,32.10
2022-08-16T14:12:32.566Z,32.10
2022-08-16T14:15:09.117Z,32.20
2022-08-16T14:18:15.626Z,32.20
2022-08-16T14:20:34.681Z,32.30
2022-08-16T14:23:08.830Z,32.30
2022-08-16T14:25:41.485Z,32.40
2022-08-16T14:28:14.062Z,32.40
2022-08-16T14:30:50.092Z,32.40
2022-08-16T14:33:24.068Z,32.50
2022-08-16T14:35:56.709Z,32.50
2022-08-16T14:38:29.668Z,32.50
2022-08-16T14:41:10.596Z,32.50
2022-08-16T14:43:43.358Z,32.60
2022-08-16T14:46:16.383Z,32.60
2022-08-16T14:48:49.165Z,32.60
2022-08-16T14:51:22.742Z,32.60
2022-08-16T14:54:02.517Z,32.60
2022-08-16T14:56:42.546Z,32.70
2022-08-16T14:59:15.947Z,32.70
2022-08-16T15:01:59.705Z,32.70
2022-08-16T15:04:48.029Z,32.70
2022-08-16T15:07:23.137Z,32.70
2022-08-16T15:10:00.811Z,32.70
2022-08-16T15:12:36.055Z,32.70
2022-08-16T15:15:16.407Z,32.70
2022-08-16T15:17:54.060Z,32.70
2022-08-16T15:20:32.561Z,32.70
2022-08-16T15:23:08.543Z,32.80
2022-08-16T15:25:47.362Z,32.70
2022-08-16T15:28:40.635Z,32.80
2022-08-16T15:31:15.090Z,32.80
2022-08-16T15:33:58.172Z,32.80
2022-08-16T15:36:31.262Z,32.90
2022-08-16T15:39:27.939Z,32.90
2022-08-16T15:42:01.210Z,32.90
2022-08-16T15:44:50.955Z,32.90
2022-08-16T15:47:28.775Z,33.00
2022-08-16T15:50:04.636Z,33.00
2022-08-16T15:52:38.006Z,33.10
2022-08-16T15:55:23.795Z,33.10
2022-08-16T15:58:35.011Z,33.10
2022-08-16T16:00:55.930Z,33.20
2022-08-16T16:03:29.271Z,33.20
2022-08-16T16:06:08.308Z,33.20
2022-08-16T16:08:41.674Z,33.20
2022-08-16T16:11:15.538Z,33.20
2022-08-16T16:13:48.507Z,33.20
2022-08-16T16:16:24.710Z,33.30
2022-08-16T16:18:57.383Z,33.30
2022-08-16T16:21:30.141Z,33.30
2022-08-16T16:24:21.431Z,33.30
2022-08-16T16:26:55.334Z,33.40
2022-08-16T16:29:28.726Z,33.40
2022-08-16T16:32:11.243Z,33.40
2022-08-16T16:34:45.400Z,33.40
2022-08-16T16:37:18.041Z,33.40
2022-08-16T16:39:50.687Z,33.40
2022-08-16T16:42:25.609Z,33.30
2022-08-16T16:45:05.071Z,33.30
2022-08-16T16:47:41.452Z,33.30
2022-08-16T16:50:16.325Z,33.30
2022-08-16T16:52:57.164Z,33.30
2022-08-16T16:55:30.424Z,33.30
2022-08-16T16:58:35.582Z,33.30
2022-08-16T17:01:09.893Z,33.30
2022-08-16T17:03:42.854Z,33.30
2022-08-16T17:06:26.326Z,33.30
2022-08-16T17:08:59.025Z,33.30
2022-08-16T17:11:32.302Z,33.30
2022-08-16T17:14:32.051Z,33.30
2022-08-16T17:17:08.580Z,33.30
2022-08-16T17:19:42.041Z,33.30
2022-08-16T17:22:19.786Z,33.40
2022-08-16T17:24:53.627Z,33.30
2022-08-16T17:27:32.118Z,33.30
2022-08-16T17:30:16.536Z,33.30
2022-08-16T17:32:54.601Z,33.30
2022-08-16T17:35:55.665Z,33.20
2022-08-16T17:38:33.059Z,33.20
2022-08-16T17:41:17.098Z,33.20
2022-08-16T17:43:49.863Z,33.10
2022-08-16T17:46:41.813Z,33.10
2022-08-16T17:49:15.270Z,33.00
2022-08-16T17:51:48.089Z,33.00
2022-08-16T17:54:30.042Z,33.00
2022-08-16T17:57:03.593Z,32.90
2022-08-16T17:59:40.565Z,32.90
2022-08-16T18:02:42.129Z,32.80
2022-08-16T18:05:06.709Z,32.80
2022-08-16T18:07:39.922Z,32.80
2022-08-16T18:10:14.750Z,32.80
2022-08-16T18:13:05.273Z,32.70
2022-08-16T18:15:41.449Z,32.70
2022-08-16T18:18:14.844Z,32.70
2022-08-16T18:21:09.762Z,32.70
2022-08-16T18:23:42.685Z,32.70
2022-08-16T18:26:15.343Z,32.60
2022-08-16T18:28:47.997Z,32.60
2022-08-16T18:31:20.630Z,32.60
2022-08-16T18:33:55.491Z,32.50
2022-08-16T18:36:29.172Z,32.50
2022-08-16T18:39:01.779Z,32.50
2022-08-16T18:41:37.396Z,32.50
2022-08-16T18:44:26.669Z,32.50
2022-08-16T18:47:00.453Z,32.40
2022-08-16T18:49:33.586Z,32.40
2022-08-16T18:52:06.265Z,32.40
2022-08-16T18:55:03.008Z,32.40
2022-08-16T18:57:31.452Z,32.40
2022-08-16T19:00:06.235Z,32.40
2022-08-16T19:02:57.281Z,32.40
2022-08-16T19:05:35.535Z,32.30
2022-08-16T19:08:10.508Z,32.30
2022-08-16T19:10:44.503Z,32.30
2022-08-16T19:13:20.524Z,32.30
2022-08-16T19:15:56.131Z,32.20
2022-08-16T19:18:36.382Z,32.20
2022-08-16T19:21:14.611Z,32.20
2022-08-16T19:23:47.936Z,32.10
2022-08-16T19:26:25.902Z,32.20
2022-08-16T19:29:03.294Z,32.10
2022-08-16T19:31:36.508Z,32.10
2022-08-16T19:34:10.171Z,32.10
2022-08-16T19:36:42.716Z,32.10
2022-08-16T19:39:16.617Z,32.10
2022-08-16T19:41:50.431Z,32.10
2022-08-16T19:44:28.038Z,32.00
2022-08-16T19:47:00.618Z,32.00
2022-08-16T19:49:33.208Z,31.90
2022-08-16T19:52:17.548Z,31.90
2022-08-16T19:54:53.477Z,31.90
2022-08-16T19:57:26.850Z,31.80
2022-08-16T20:00:00.232Z,31.80
2022-08-16T20:02:36.237Z,31.80
2022-08-16T20:05:09.620Z,31.70
2022-08-16T20:07:43.258Z,31.70
2022-08-16T20:10:17.360Z,31.70
2022-08-16T20:13:02.076Z,31.70
2022-08-16T20:15:35.817Z,31.70
2022-08-16T20:18:24.640Z,31.70
2022-08-16T20:20:58.337Z,31.60
2022-08-16T20:23:31.382Z,31.60
2022-08-16T20:26:04.003Z,31.60
2022-08-16T20:28:52.425Z,31.60
2022-08-16T20:31:26.239Z,31.50
2022-08-16T20:33:58.871Z,31.60
2022-08-16T20:36:31.544Z,31.50
2022-08-16T20:39:04.934Z,31.50
2022-08-16T20:41:37.641Z,31.50
2022-08-16T20:44:11.068Z,31.50
2022-08-16T20:46:43.733Z,31.50
2022-08-16T20:49:16.215Z,31.50
2022-08-16T20:51:52.629Z,31.50
2022-08-16T20:54:29.290Z,31.50
2022-08-16T20:57:02.631Z,31.50
2022-08-16T20:59:35.812Z,31.50
2022-08-16T21:02:11.407Z,31.50
2022-08-16T21:04:44.190Z,31.50
2022-08-16T21:07:19.586Z,31.50
2022-08-16T21:09:52.756Z,31.40
2022-08-16T21:12:25.275Z,31.40
2022-08-16T21:15:08.512Z,31.40
2022-08-16T21:17:41.007Z,31.40
2022-08-16T21:20:14.150Z,31.40
2022-08-16T21:22:58.904Z,31.40
2022-08-16T21:25:33.017Z,31.40
2022-08-16T21:28:40.239Z,31.40
2022-08-16T21:30:59.361Z,31.40
2022-08-16T21:33:31.989Z,31.40
2022-08-16T21:36:05.297Z,31.40
2022-08-16T21:38:38.055Z,31.30
2022-08-16T21:41:13.035Z,31.30
2022-08-16T21:43:45.687Z,31.30
2022-08-16T21:46:18.647Z,31.30
2022-08-16T21:48:51.399Z,31.30
2022-08-16T21:51:23.976Z,31.30
2022-08-16T21:53:57.133Z,31.30
2022-08-16T21:56:30.069Z,31.30
2022-08-16T21:59:07.336Z,31.30
2022-08-16T22:01:45.283Z,31.30
2022-08-16T22:04:37.821Z,31.20
2022-08-16T22:07:10.684Z,31.20
2022-08-16T22:09:45.410Z,31.20
2022-08-16T22:12:26.821Z,31.20
2022-08-16T22:14:59.374Z,31.20
2022-08-16T22:17:32.664Z,31.10
2022-08-16T22:20:08.411Z,31.20
2022-08-16T22:22:40.996Z,31.10
2022-08-16T22:25:15.056Z,31.10
2022-08-16T22:27:47.671Z,31.10
2022-08-16T22:30:20.385Z,31.10
2022-08-16T22:32:53.180Z,31.00
2022-08-16T22:35:25.788Z,31.10
2022-08-16T22:38:50.472Z,31.10
2022-08-16T22:40:53.862Z,31.00
2022-08-16T22:43:27.795Z,31.00
2022-08-16T22:46:00.856Z,31.00
2022-08-16T22:48:39.225Z,31.00
2022-08-16T22:51:13.836Z,31.00
2022-08-16T22:53:46.684Z,31.00
2022-08-16T22:56:19.267Z,30.90
2022-08-16T22:58:52.941Z,30.90
2022-08-16T23:01:27.383Z,30.90
2022-08-16T23:04:00.040Z,30.90
2022-08-16T23:06:33.055Z,30.90
2022-08-16T23:09:05.703Z,30.80
2022-08-16T23:11:38.236Z,30.80
2022-08-16T23:14:10.779Z,30.80
2022-08-16T23:16:44.221Z,30.80
2022-08-16T23:19:17.815Z,30.80
2022-08-16T23:21:50.789Z,30.80
2022-08-16T23:24:24.664Z,30.70
2022-08-16T23:26:57.190Z,30.80
2022-08-16T23:29:29.834Z,30.80
2022-08-16T23:32:11.524Z,30.80
2022-08-16T23:34:44.087Z,30.80
2022-08-16T23:37:16.642Z,30.80
2022-08-16T23:39:49.231Z,30.80
2022-08-16T23:42:52.821Z,30.80
2022-08-16T23:45:21.534Z,30.80
2022-08-16T23:47:55.989Z,30.80
2022-08-16T23:50:32.341Z,30.80
2022-08-16T23:53:10.553Z,30.80
2022-08-16T23:55:53.521Z,30.80
2022-08-16T23:58:47.241Z,30.90
